Startpagina
METAR-TAF:

METAR-TAF

Vliegvelden :

Flughafen Münster-Osnabrück

Münster-Osnabrück, Duitsland

breedte: 52-08N, lengte: 007-42E, hoogte: 48 m

Actueel weer

Dit bericht is 19 minuten geleden gemaakt, om 06:50 UTC
Wind 3 kt uit variabele richting
Temperatuur 6°C
Vochtigheid 70%
Druk 1025 hPa
Zicht 10 km of meer
geen wolken onder 1500 m en geen cumulonimbus

METAR: EDDG 220650Z AUTO VRB03KT CAVOK 06/01 Q1025 NOSIG

Tijdstip: 09:09 (07:09 UTC)

Verwachting

Dit bericht is 2 uur en het 9 minuten geleden gemaakt, om 05:00 UTC
Verwachting geldig van 22 om 06 UTC tot 23 om 06 UTC
Wind 7 kt uit het noordnoordoosten
Zicht 10 km of meer
Weinig wolken op 2500 ft
Kans 30% :
Tijdelijke
van 22 om 11 UTC tot 22 om 16 UTC
Verspreide wolken op 2000 ft, Cumulonimbus.
regenbuien, korrelhagel of korrelsneeuw
Wijzigt naar
van 22 om 17 UTC tot 22 om 20 UTC
Wind 2 kt uit het noordnoordoosten

TAF: EDDG 220500Z 2206/2306 02007KT 9999 FEW025 PROB30 TEMPO 2211/2216 SHRAGS SCT020CB BECMG 2217/2220 02002KT

Waarnemingen en weersverwachtingen van meer dan 4000 vliegvelden (METAR en TAF).

De beschikbare stations zijn de gele en rode punten op de kaart.

Ga met uw muis naar het station om de naam te zien.

Klik dan om waarnemingen en weersverwachtingen te zien.

kaart wijzigen: klik op de groene knoppen met een zwart kruis om in te zoomen, op de groene knop met een streepje om uit te zoomen of op de groene pijlen voor aangrenzende kaarten.


METAR-TAF: